createdAt,value
2022-09-01T00:00:28.171Z,0.00
2022-09-01T00:01:28.838Z,0.00
2022-09-01T00:02:28.904Z,0.00
2022-09-01T00:03:28.222Z,0.00
2022-09-01T00:04:28.877Z,0.00
2022-09-01T00:05:28.122Z,0.00
2022-09-01T00:06:28.159Z,0.00
2022-09-01T00:07:28.794Z,0.00
2022-09-01T00:08:28.759Z,0.00
2022-09-01T00:09:28.130Z,0.00
2022-09-01T00:10:28.751Z,0.00
2022-09-01T00:11:28.053Z,0.00
2022-09-01T00:12:28.711Z,0.00
2022-09-01T00:13:28.111Z,0.00
2022-09-01T00:14:30.662Z,0.00
2022-09-01T00:15:28.137Z,0.00
2022-09-01T00:16:29.937Z,0.00
2022-09-01T00:17:28.062Z,0.00
2022-09-01T00:18:28.643Z,0.00
2022-09-01T00:19:28.663Z,0.00
2022-09-01T00:20:28.623Z,0.00
2022-09-01T00:21:28.092Z,0.00
2022-09-01T00:22:27.979Z,0.00
2022-09-01T00:23:29.404Z,0.00
2022-09-01T00:24:27.998Z,0.00
2022-09-01T00:25:27.931Z,0.00
2022-09-01T00:26:28.572Z,0.00
2022-09-01T00:27:30.975Z,0.00
2022-09-01T00:28:30.312Z,0.00
2022-09-01T00:29:28.023Z,0.00
2022-09-01T00:30:28.832Z,0.00
2022-09-01T00:31:27.897Z,0.00
2022-09-01T00:32:28.500Z,0.00
2022-09-01T00:33:28.188Z,0.00
2022-09-01T00:34:27.867Z,0.00
2022-09-01T00:35:28.238Z,0.00
2022-09-01T00:36:28.456Z,0.00
2022-09-01T00:37:30.408Z,0.00
2022-09-01T00:38:27.838Z,0.00
2022-09-01T00:39:27.848Z,0.00
2022-09-01T00:40:28.793Z,0.00
2022-09-01T00:41:28.399Z,0.00
2022-09-01T00:42:28.737Z,0.00
2022-09-01T00:43:27.789Z,0.00
2022-09-01T00:44:29.769Z,0.00
2022-09-01T00:45:27.820Z,0.00
2022-09-01T00:46:30.246Z,0.00
2022-09-01T00:47:28.731Z,0.00
2022-09-01T00:48:28.001Z,0.00
2022-09-01T00:49:28.329Z,0.00
2022-09-01T00:50:27.672Z,0.00
2022-09-01T00:51:28.877Z,0.00
2022-09-01T00:52:28.612Z,0.00
2022-09-01T00:53:28.774Z,0.00
2022-09-01T00:54:27.613Z,0.00
2022-09-01T00:55:28.255Z,0.00
2022-09-01T00:56:28.241Z,0.00
2022-09-01T00:57:28.303Z,0.00
2022-09-01T00:58:28.222Z,0.00
2022-09-01T00:59:28.213Z,0.00
2022-09-01T01:00:28.199Z,0.00
2022-09-01T01:01:28.198Z,0.00
2022-09-01T01:02:30.018Z,0.00
2022-09-01T01:03:27.546Z,0.00
2022-09-01T01:04:28.148Z,0.00
2022-09-01T01:05:28.166Z,0.00
2022-09-01T01:06:31.796Z,0.00
2022-09-01T01:07:27.537Z,0.00
2022-09-01T01:08:28.116Z,0.00
2022-09-01T01:09:27.915Z,0.00
2022-09-01T01:10:27.466Z,0.00
2022-09-01T01:11:27.407Z,0.00
2022-09-01T01:12:28.232Z,0.00
2022-09-01T01:13:27.417Z,0.00
2022-09-01T01:14:27.417Z,0.00
2022-09-01T01:15:28.034Z,0.00
2022-09-01T01:16:28.280Z,0.00
2022-09-01T01:17:28.174Z,0.00
2022-09-01T01:18:28.168Z,0.00
2022-09-01T01:19:28.235Z,0.00
2022-09-01T01:20:27.325Z,0.00
2022-09-01T01:21:28.260Z,0.00
2022-09-01T01:22:27.313Z,0.00
2022-09-01T01:23:28.259Z,0.00
2022-09-01T01:24:28.113Z,0.00
2022-09-01T01:25:27.447Z,0.00
2022-09-01T01:26:29.252Z,0.00
2022-09-01T01:27:27.890Z,0.00
2022-09-01T01:28:29.713Z,0.00
2022-09-01T01:29:27.206Z,0.00
2022-09-01T01:30:27.233Z,0.00
2022-09-01T01:31:29.652Z,0.00
2022-09-01T01:32:27.860Z,0.00
2022-09-01T01:33:28.033Z,0.00
2022-09-01T01:34:27.169Z,0.00
2022-09-01T01:35:29.652Z,0.00
2022-09-01T01:36:28.094Z,0.00
2022-09-01T01:37:27.202Z,0.00
2022-09-01T01:38:27.781Z,0.00
2022-09-01T01:39:27.176Z,0.00
2022-09-01T01:40:29.133Z,0.00
2022-09-01T01:41:27.111Z,0.00
2022-09-01T01:42:27.738Z,0.00
2022-09-01T01:43:27.165Z,0.00
2022-09-01T01:44:27.118Z,0.00
2022-09-01T01:45:27.180Z,0.00
2022-09-01T01:46:27.084Z,0.00
2022-09-01T01:47:27.946Z,0.00
2022-09-01T01:48:27.028Z,0.00
2022-09-01T01:49:27.045Z,0.00
2022-09-01T01:50:27.655Z,0.00
2022-09-01T01:51:27.106Z,0.00
2022-09-01T01:52:27.672Z,0.00
2022-09-01T01:53:27.000Z,0.00
2022-09-01T01:54:27.062Z,0.00
2022-09-01T01:55:26.995Z,0.00
2022-09-01T01:56:29.366Z,0.00
2022-09-01T01:57:27.686Z,0.00
2022-09-01T01:58:26.979Z,0.00
2022-09-01T01:59:27.713Z,0.00
2022-09-01T02:00:30.507Z,0.00
2022-09-01T02:01:26.879Z,0.00
2022-09-01T02:02:26.887Z,0.00
2022-09-01T02:03:27.779Z,0.00
2022-09-01T02:04:26.821Z,0.00
2022-09-01T02:05:26.853Z,0.00
2022-09-01T02:06:27.479Z,0.00
2022-09-01T02:07:27.483Z,0.00
2022-09-01T02:08:29.830Z,0.00
2022-09-01T02:09:27.452Z,0.00
2022-09-01T02:10:27.619Z,0.00
2022-09-01T02:11:27.600Z,0.00
2022-09-01T02:12:27.422Z,0.00
2022-09-01T02:13:27.419Z,0.00
2022-09-01T02:14:28.432Z,0.00
2022-09-01T02:15:27.393Z,0.00
2022-09-01T02:16:27.412Z,0.00
2022-09-01T02:17:27.363Z,0.00
2022-09-01T02:18:27.356Z,0.00
2022-09-01T02:19:27.488Z,0.00
2022-09-01T02:20:26.654Z,0.00
2022-09-01T02:21:27.324Z,0.00
2022-09-01T02:22:27.321Z,0.00
2022-09-01T02:23:27.536Z,0.00
2022-09-01T02:24:26.635Z,0.00
2022-09-01T02:25:27.535Z,0.00
2022-09-01T02:26:26.697Z,0.00
2022-09-01T02:27:26.601Z,0.00
2022-09-01T02:28:27.250Z,0.00
2022-09-01T02:29:27.238Z,0.00
2022-09-01T02:30:27.288Z,0.00
2022-09-01T02:31:27.239Z,0.00
2022-09-01T02:32:26.610Z,0.00
2022-09-01T02:33:28.438Z,0.00
2022-09-01T02:34:27.460Z,0.00
2022-09-01T02:35:27.452Z,0.00
2022-09-01T02:36:26.497Z,0.00
2022-09-01T02:37:27.151Z,0.00
2022-09-01T02:38:27.129Z,0.00
2022-09-01T02:39:27.139Z,0.00
2022-09-01T02:40:27.220Z,0.00
2022-09-01T02:41:26.449Z,0.00
2022-09-01T02:42:26.459Z,0.00
2022-09-01T02:43:27.080Z,0.00
2022-09-01T02:44:27.501Z,0.00
2022-09-01T02:45:27.081Z,0.00
2022-09-01T02:46:27.050Z,0.00
2022-09-01T02:47:27.043Z,0.00
2022-09-01T02:48:27.032Z,0.00
2022-09-01T02:49:26.343Z,0.00
2022-09-01T02:50:26.441Z,0.00
2022-09-01T02:51:27.004Z,0.00
2022-09-01T02:52:26.293Z,0.00
2022-09-01T02:53:26.983Z,0.00
2022-09-01T02:54:26.963Z,0.00
2022-09-01T02:55:28.747Z,0.00
2022-09-01T02:56:26.383Z,0.00
2022-09-01T02:57:26.945Z,0.00
2022-09-01T02:58:26.926Z,0.00
2022-09-01T02:59:27.185Z,0.00
2022-09-01T03:00:27.175Z,0.00
2022-09-01T03:01:26.963Z,0.00
2022-09-01T03:02:26.956Z,0.00
2022-09-01T03:03:26.208Z,0.00
2022-09-01T03:04:26.267Z,0.00
2022-09-01T03:05:26.856Z,0.00
2022-09-01T03:06:26.836Z,0.00
2022-09-01T03:07:28.659Z,0.00
2022-09-01T03:08:26.806Z,0.00
2022-09-01T03:09:26.808Z,0.00
2022-09-01T03:10:26.158Z,0.00
2022-09-01T03:11:28.549Z,0.00
2022-09-01T03:12:26.781Z,0.00
2022-09-01T03:13:26.134Z,0.00
2022-09-01T03:14:27.058Z,0.00
2022-09-01T03:15:26.739Z,0.00
2022-09-01T03:16:26.757Z,0.00
2022-09-01T03:17:26.029Z,0.00
2022-09-01T03:18:26.737Z,0.00
2022-09-01T03:19:26.708Z,0.00
2022-09-01T03:20:26.707Z,0.00
2022-09-01T03:21:26.687Z,0.00
2022-09-01T03:22:28.441Z,0.00
2022-09-01T03:23:26.650Z,0.00
2022-09-01T03:24:26.644Z,0.00
2022-09-01T03:25:26.631Z,0.00
2022-09-01T03:26:26.023Z,0.00
2022-09-01T03:27:26.611Z,0.00
2022-09-01T03:28:25.976Z,0.00
2022-09-01T03:29:26.594Z,0.00
2022-09-01T03:30:25.910Z,0.00
2022-09-01T03:31:25.950Z,0.00
2022-09-01T03:32:25.914Z,0.00
2022-09-01T03:33:26.542Z,0.00
2022-09-01T03:34:26.535Z,0.00
2022-09-01T03:35:26.776Z,0.00
2022-09-01T03:36:25.845Z,0.00
2022-09-01T03:37:26.513Z,0.00
2022-09-01T03:38:26.474Z,0.00
2022-09-01T03:39:26.488Z,0.00
2022-09-01T03:40:25.858Z,0.00
2022-09-01T03:41:25.785Z,0.00
2022-09-01T03:42:28.272Z,0.00
2022-09-01T03:43:25.757Z,0.00
2022-09-01T03:44:25.785Z,0.00
2022-09-01T03:45:26.450Z,0.00
2022-09-01T03:46:25.737Z,0.00
2022-09-01T03:47:26.403Z,0.00
2022-09-01T03:48:26.381Z,0.00
2022-09-01T03:49:26.368Z,0.00
2022-09-01T03:50:26.358Z,0.00
2022-09-01T03:51:26.349Z,0.00
2022-09-01T03:52:26.338Z,0.00
2022-09-01T03:53:26.329Z,0.00
2022-09-01T03:54:26.318Z,0.00
2022-09-01T03:55:25.757Z,0.00
2022-09-01T03:56:26.289Z,0.00
2022-09-01T03:57:25.600Z,0.00
2022-09-01T03:58:29.077Z,0.00
2022-09-01T03:59:28.030Z,0.00
2022-09-01T04:00:26.488Z,0.00
2022-09-01T04:01:26.326Z,0.00
2022-09-01T04:02:25.612Z,0.00
2022-09-01T04:03:28.753Z,0.00
2022-09-01T04:04:25.532Z,0.00
2022-09-01T04:05:25.550Z,0.00
2022-09-01T04:06:27.446Z,0.00
2022-09-01T04:07:25.509Z,0.00
2022-09-01T04:08:26.234Z,0.00
2022-09-01T04:09:25.472Z,0.00
2022-09-01T04:10:25.494Z,0.00
2022-09-01T04:11:26.133Z,0.00
2022-09-01T04:12:25.446Z,0.00
2022-09-01T04:13:26.104Z,0.00
2022-09-01T04:14:26.075Z,0.00
2022-09-01T04:15:25.418Z,0.00
2022-09-01T04:16:25.456Z,0.00
2022-09-01T04:17:30.320Z,0.00
2022-09-01T04:18:26.064Z,0.00
2022-09-01T04:19:25.413Z,0.00
2022-09-01T04:20:26.043Z,0.00
2022-09-01T04:21:25.354Z,0.00
2022-09-01T04:22:26.016Z,0.00
2022-09-01T04:23:25.994Z,0.00
2022-09-01T04:24:25.983Z,0.00
2022-09-01T04:25:25.354Z,0.00
2022-09-01T04:26:25.307Z,0.00
2022-09-01T04:27:25.308Z,0.00
2022-09-01T04:28:25.290Z,0.00
2022-09-01T04:29:27.843Z,0.00
2022-09-01T04:30:25.926Z,0.00
2022-09-01T04:31:25.287Z,5.62
2022-09-01T04:32:27.159Z,5.62
2022-09-01T04:33:25.890Z,5.62
2022-09-01T04:34:25.878Z,5.62
2022-09-01T04:35:25.180Z,5.62
2022-09-01T04:36:25.855Z,5.62
2022-09-01T04:37:25.182Z,5.62
2022-09-01T04:38:25.182Z,5.62
2022-09-01T04:39:25.162Z,11.25
2022-09-01T04:40:25.869Z,11.25
2022-09-01T04:41:25.113Z,11.25
2022-09-01T04:42:25.784Z,11.25
2022-09-01T04:43:25.782Z,11.25
2022-09-01T04:44:26.573Z,16.88
2022-09-01T04:45:25.157Z,16.88
2022-09-01T04:46:25.102Z,16.88
2022-09-01T04:47:25.734Z,16.88
2022-09-01T04:48:25.772Z,22.50
2022-09-01T04:49:25.702Z,22.50
2022-09-01T04:50:25.055Z,22.50
2022-09-01T04:51:25.684Z,22.50
2022-09-01T04:52:25.097Z,28.12
2022-09-01T04:53:25.699Z,28.12
2022-09-01T04:54:24.987Z,28.12
2022-09-01T04:55:25.642Z,28.12
2022-09-01T04:56:25.623Z,28.12
2022-09-01T04:57:25.624Z,33.75
2022-09-01T04:58:25.133Z,33.75
2022-09-01T04:59:24.907Z,33.75
2022-09-01T05:00:24.915Z,33.75
2022-09-01T05:01:25.717Z,39.38
2022-09-01T05:02:24.992Z,39.38
2022-09-01T05:03:25.562Z,39.38
2022-09-01T05:04:25.557Z,45.00
2022-09-01T05:05:25.549Z,45.00
2022-09-01T05:06:25.516Z,45.00
2022-09-01T05:07:27.257Z,50.62
2022-09-01T05:08:27.288Z,50.62
2022-09-01T05:09:26.287Z,50.62
2022-09-01T05:10:25.487Z,56.25
2022-09-01T05:11:24.798Z,56.25
2022-09-01T05:12:25.459Z,56.25
2022-09-01T05:13:25.448Z,56.25
2022-09-01T05:14:25.417Z,61.88
2022-09-01T05:15:25.429Z,61.88
2022-09-01T05:16:25.610Z,61.88
2022-09-01T05:17:24.703Z,61.88
2022-09-01T05:18:25.391Z,67.50
2022-09-01T05:19:24.690Z,67.50
2022-09-01T05:20:24.785Z,67.50
2022-09-01T05:21:25.355Z,67.50
2022-09-01T05:22:25.341Z,73.12
2022-09-01T05:23:25.413Z,73.12
2022-09-01T05:24:24.652Z,73.12
2022-09-01T05:25:27.117Z,78.75
2022-09-01T05:26:24.702Z,84.38
2022-09-01T05:27:24.690Z,84.38
2022-09-01T05:28:25.356Z,90.00
2022-09-01T05:29:24.622Z,95.62
2022-09-01T05:30:25.272Z,101.25
2022-09-01T05:31:25.299Z,101.25
2022-09-01T05:32:25.243Z,112.50
2022-09-01T05:33:25.464Z,123.75
2022-09-01T05:34:25.212Z,135.00
2022-09-01T05:35:32.477Z,140.62
2022-09-01T05:36:25.514Z,168.75
2022-09-01T05:37:24.484Z,191.25
2022-09-01T05:38:25.154Z,236.25
2022-09-01T05:39:24.466Z,326.25
2022-09-01T05:40:25.187Z,393.75
2022-09-01T05:41:24.526Z,478.12
2022-09-01T05:42:24.497Z,528.75
2022-09-01T05:43:24.930Z,534.38
2022-09-01T05:44:25.107Z,551.25
2022-09-01T05:45:24.465Z,562.50
2022-09-01T05:46:25.097Z,590.62
2022-09-01T05:47:25.076Z,624.38
2022-09-01T05:48:25.060Z,669.38
2022-09-01T05:49:25.059Z,736.88
2022-09-01T05:50:26.333Z,810.00
2022-09-01T05:51:43.305Z,888.75
2022-09-01T05:52:25.343Z,967.50
2022-09-01T05:53:25.009Z,1153.12
2022-09-01T05:54:24.379Z,1389.38
2022-09-01T05:55:24.979Z,1541.25
2022-09-01T05:56:24.970Z,1653.75
2022-09-01T05:57:34.573Z,1681.88
2022-09-01T05:58:26.475Z,1636.88
2022-09-01T05:59:25.664Z,1597.50
2022-09-01T06:00:24.270Z,1530.00
2022-09-01T06:01:24.914Z,1445.62
2022-09-01T06:02:25.066Z,1215.00
2022-09-01T06:03:25.320Z,714.38
2022-09-01T06:04:24.211Z,708.75
2022-09-01T06:05:24.871Z,1012.50
2022-09-01T06:06:24.191Z,1265.62
2022-09-01T06:07:25.561Z,1231.88
2022-09-01T06:08:24.211Z,1175.62
2022-09-01T06:09:24.841Z,1192.50
2022-09-01T06:10:24.875Z,1237.50
2022-09-01T06:11:24.809Z,1248.75
2022-09-01T06:12:24.885Z,1215.00
2022-09-01T06:13:27.342Z,1147.50
2022-09-01T06:14:24.772Z,1085.62
2022-09-01T06:15:24.147Z,990.00
2022-09-01T06:16:25.138Z,945.00
2022-09-01T06:17:25.448Z,1012.50
2022-09-01T06:18:24.995Z,1023.75
2022-09-01T06:19:25.287Z,1001.25
2022-09-01T06:20:24.798Z,995.62
2022-09-01T06:21:24.697Z,1006.88
2022-09-01T06:22:24.689Z,1006.88
2022-09-01T06:23:25.939Z,1001.25
2022-09-01T06:24:23.977Z,973.12
2022-09-01T06:25:24.658Z,995.62
2022-09-01T06:26:24.657Z,1001.25
2022-09-01T06:27:23.939Z,967.50
2022-09-01T06:28:23.951Z,978.75
2022-09-01T06:29:23.932Z,990.00
2022-09-01T06:30:24.729Z,950.62
2022-09-01T06:31:23.931Z,883.12
2022-09-01T06:32:23.968Z,911.25
2022-09-01T06:33:24.580Z,933.75
2022-09-01T06:34:23.923Z,933.75
2022-09-01T06:35:24.576Z,945.00
2022-09-01T06:36:23.899Z,956.25
2022-09-01T06:37:23.874Z,978.75
2022-09-01T06:38:24.015Z,984.38
2022-09-01T06:39:23.883Z,950.62
2022-09-01T06:40:24.547Z,928.12
2022-09-01T06:41:23.805Z,950.62
2022-09-01T06:42:24.474Z,967.50
2022-09-01T06:43:24.456Z,950.62
2022-09-01T06:44:23.815Z,945.00
2022-09-01T06:45:24.448Z,995.62
2022-09-01T06:46:24.483Z,1108.12
2022-09-01T06:47:24.425Z,1125.00
2022-09-01T06:48:26.158Z,1040.62
2022-09-01T06:49:23.730Z,1023.75
2022-09-01T06:51:24.717Z,978.75
2022-09-01T06:52:23.713Z,961.88
2022-09-01T06:54:24.693Z,1209.38
2022-09-01T06:55:23.668Z,1282.50
2022-09-01T06:56:24.599Z,1192.50
2022-09-01T06:58:26.563Z,1226.25
2022-09-01T06:59:23.646Z,1305.00
2022-09-01T07:00:25.526Z,1468.12
2022-09-01T07:01:25.621Z,1659.38
2022-09-01T07:02:27.183Z,1676.25
2022-09-01T07:03:23.552Z,1659.38
2022-09-01T07:04:25.289Z,1653.75
2022-09-01T07:08:25.098Z,1980.00
2022-09-01T07:09:38.641Z,1591.88
2022-09-01T07:10:24.614Z,1288.12
2022-09-01T07:12:26.675Z,1029.38
2022-09-01T07:13:24.135Z,950.62
2022-09-01T07:14:24.126Z,883.12
2022-09-01T07:17:26.368Z,793.12
2022-09-01T07:19:48.317Z,781.88
2022-09-01T07:20:26.040Z,787.50
2022-09-01T07:21:42.420Z,804.38
2022-09-01T07:23:24.430Z,843.75
2022-09-01T07:24:26.616Z,967.50
2022-09-01T07:25:48.265Z,1209.38
2022-09-01T07:26:25.805Z,1327.50
2022-09-01T07:27:23.331Z,1276.88
2022-09-01T07:28:25.463Z,1456.88
2022-09-01T07:29:23.332Z,1603.12
2022-09-01T07:30:23.963Z,1597.50
2022-09-01T07:34:39.981Z,1518.75
2022-09-01T07:35:25.016Z,1524.38
2022-09-01T07:39:57.233Z,1085.62
2022-09-01T07:42:56.298Z,787.50
2022-09-01T07:43:25.004Z,2137.50
2022-09-01T07:44:23.121Z,2154.38
2022-09-01T07:45:27.545Z,2075.62
2022-09-01T07:46:39.256Z,2148.75
2022-09-01T07:49:49.173Z,2075.62
2022-09-01T07:50:40.455Z,1968.75
2022-09-01T07:51:40.283Z,2019.38
2022-09-01T07:52:25.527Z,2025.00
2022-09-01T07:53:24.952Z,1878.75
2022-09-01T07:54:23.039Z,2064.38
2022-09-01T07:55:23.113Z,2131.88
2022-09-01T07:56:22.993Z,2188.12
2022-09-01T07:57:23.679Z,2368.12
2022-09-01T07:58:23.653Z,2514.38
2022-09-01T07:59:22.961Z,2446.88
2022-09-01T08:00:23.943Z,2221.88
2022-09-01T08:01:24.662Z,2171.25
2022-09-01T08:02:23.691Z,2154.38
2022-09-01T08:03:23.892Z,2278.12
2022-09-01T08:04:22.990Z,2396.25
2022-09-01T08:05:22.906Z,2452.50
2022-09-01T08:06:22.888Z,2458.12
2022-09-01T08:07:23.007Z,2373.75
2022-09-01T08:08:29.408Z,2081.25
2022-09-01T08:09:32.794Z,2317.50
2022-09-01T08:10:23.869Z,2531.25
2022-09-01T08:11:40.002Z,2137.50
2022-09-01T08:12:28.926Z,1957.50
2022-09-01T08:13:22.811Z,2025.00
2022-09-01T08:14:23.491Z,2131.88
2022-09-01T08:15:41.111Z,2396.25
2022-09-01T08:16:25.708Z,2610.00
2022-09-01T08:18:23.846Z,2452.50
2022-09-01T08:19:22.751Z,2418.75
2022-09-01T08:20:23.421Z,2430.00
2022-09-01T08:21:23.448Z,2593.12
2022-09-01T08:22:23.407Z,2711.25
2022-09-01T08:23:23.303Z,2801.25
2022-09-01T08:24:23.366Z,2700.00
2022-09-01T08:25:24.999Z,2525.62
2022-09-01T08:26:22.685Z,2531.25
2022-09-01T08:27:23.410Z,2761.88
2022-09-01T08:28:26.957Z,2773.12
2022-09-01T08:29:23.316Z,2688.75
2022-09-01T08:30:23.307Z,2767.50
2022-09-01T08:31:23.604Z,2773.12
2022-09-01T08:32:23.356Z,2671.88
2022-09-01T08:33:23.286Z,2683.12
2022-09-01T08:34:23.276Z,2778.75
2022-09-01T08:35:23.256Z,2986.88
2022-09-01T08:36:25.013Z,2981.25
2022-09-01T08:37:22.588Z,2992.50
2022-09-01T08:38:22.821Z,3116.25
2022-09-01T08:39:22.530Z,3121.88
2022-09-01T08:40:22.607Z,3060.00
2022-09-01T08:41:24.922Z,3020.62
2022-09-01T08:42:23.269Z,3071.25
2022-09-01T08:43:22.593Z,3161.25
2022-09-01T08:44:22.460Z,3144.38
2022-09-01T08:45:23.160Z,3211.88
2022-09-01T08:46:23.239Z,3088.12
2022-09-01T08:47:43.604Z,3172.50
2022-09-01T08:49:27.096Z,2964.38
2022-09-01T08:50:24.374Z,3020.62
2022-09-01T08:51:23.084Z,3217.50
2022-09-01T08:52:23.131Z,3155.62
2022-09-01T08:53:23.113Z,2756.25
2022-09-01T08:54:29.397Z,1726.88
2022-09-01T08:55:24.292Z,950.62
2022-09-01T08:56:23.034Z,776.25
2022-09-01T08:57:23.026Z,691.88
2022-09-01T08:58:22.520Z,630.00
2022-09-01T08:59:22.666Z,579.38
2022-09-01T09:00:22.629Z,534.38
2022-09-01T09:01:22.357Z,500.62
2022-09-01T09:02:23.108Z,478.12
2022-09-01T09:03:22.295Z,455.62
2022-09-01T09:04:22.278Z,438.75
2022-09-01T09:05:22.249Z,433.12
2022-09-01T09:06:22.259Z,421.88
2022-09-01T09:07:22.919Z,410.62
2022-09-01T09:08:22.902Z,399.38
2022-09-01T09:09:32.454Z,393.75
2022-09-01T09:10:23.221Z,382.50
2022-09-01T09:11:22.661Z,376.88
2022-09-01T09:12:22.849Z,371.25
2022-09-01T09:13:22.913Z,360.00
2022-09-01T09:14:22.901Z,360.00
2022-09-01T09:15:22.874Z,354.38
2022-09-01T09:16:22.264Z,348.75
2022-09-01T09:17:22.821Z,343.12
2022-09-01T09:18:39.649Z,337.50
2022-09-01T09:19:24.561Z,331.88
2022-09-01T09:20:22.134Z,331.88
2022-09-01T09:21:22.766Z,326.25
2022-09-01T09:22:22.155Z,320.62
2022-09-01T09:23:22.165Z,320.62
2022-09-01T09:24:22.891Z,320.62
2022-09-01T09:25:22.729Z,315.00
2022-09-01T09:26:22.453Z,315.00
2022-09-01T09:27:24.002Z,315.00
2022-09-01T09:28:22.018Z,315.00
2022-09-01T09:29:23.295Z,315.00
2022-09-01T09:30:22.026Z,315.00
2022-09-01T09:31:22.076Z,315.00
2022-09-01T09:32:24.002Z,320.62
2022-09-01T09:33:47.770Z,326.25
2022-09-01T09:34:23.634Z,331.88
2022-09-01T09:35:24.360Z,337.50
2022-09-01T09:36:25.302Z,298.12
2022-09-01T09:37:23.845Z,185.62
2022-09-01T09:38:24.344Z,354.38
2022-09-01T09:39:22.583Z,382.50
2022-09-01T09:40:21.928Z,376.88
2022-09-01T09:41:29.746Z,388.12
2022-09-01T09:42:27.670Z,410.62
2022-09-01T09:43:22.872Z,388.12
2022-09-01T09:44:23.064Z,365.62
2022-09-01T09:45:21.832Z,382.50
2022-09-01T09:46:25.298Z,241.88
2022-09-01T09:47:42.357Z,270.00
2022-09-01T09:48:22.877Z,320.62
2022-09-01T09:49:35.967Z,241.88
2022-09-01T09:50:24.679Z,388.12
2022-09-01T09:51:24.216Z,275.62
2022-09-01T09:52:21.797Z,230.62
2022-09-01T09:53:21.884Z,388.12
2022-09-01T09:54:21.770Z,309.38
2022-09-01T09:55:22.490Z,421.88
2022-09-01T09:56:22.404Z,416.25
2022-09-01T09:57:22.400Z,438.75
2022-09-01T09:58:22.379Z,438.75
2022-09-01T09:59:34.155Z,399.38
2022-09-01T10:00:25.822Z,405.00
2022-09-01T10:01:24.327Z,405.00
2022-09-01T10:02:22.321Z,444.38
2022-09-01T10:03:22.864Z,421.88
2022-09-01T10:04:21.717Z,410.62
2022-09-01T10:05:23.082Z,421.88
2022-09-01T10:06:22.275Z,438.75
2022-09-01T10:07:24.502Z,444.38
2022-09-01T10:08:22.523Z,405.00
2022-09-01T10:09:23.994Z,405.00
2022-09-01T10:10:22.253Z,405.00
2022-09-01T10:11:22.232Z,393.75
2022-09-01T10:12:22.215Z,382.50
2022-09-01T10:13:22.281Z,382.50
2022-09-01T10:14:35.350Z,382.50
2022-09-01T10:15:23.185Z,393.75
2022-09-01T10:16:22.315Z,376.88
2022-09-01T10:17:22.622Z,405.00
2022-09-01T10:18:28.336Z,264.38
2022-09-01T10:19:23.936Z,405.00
2022-09-01T10:20:21.459Z,444.38
2022-09-01T10:21:21.490Z,461.25
2022-09-01T10:22:22.161Z,450.00
2022-09-01T10:23:22.125Z,444.38
2022-09-01T10:24:26.958Z,495.00
2022-09-01T10:25:23.108Z,540.00
2022-09-01T10:26:22.059Z,551.25
2022-09-01T10:27:21.414Z,506.25
2022-09-01T10:28:22.358Z,545.62
2022-09-01T10:29:21.380Z,585.00
2022-09-01T10:30:21.381Z,331.88
2022-09-01T10:31:21.396Z,455.62
2022-09-01T10:32:35.173Z,275.62
2022-09-01T10:33:22.571Z,551.25
2022-09-01T10:34:21.302Z,579.38
2022-09-01T10:35:21.342Z,1501.88
2022-09-01T10:36:24.427Z,894.38
2022-09-01T10:37:22.835Z,331.88
2022-09-01T10:38:21.979Z,326.25
2022-09-01T10:39:22.156Z,371.25
2022-09-01T10:40:30.337Z,376.88
2022-09-01T10:41:22.284Z,343.12
2022-09-01T10:42:21.904Z,382.50
2022-09-01T10:43:21.218Z,354.38
2022-09-01T10:44:21.867Z,343.12
2022-09-01T10:45:21.870Z,309.38
2022-09-01T10:46:38.975Z,326.25
2022-09-01T10:47:23.169Z,309.38
2022-09-01T10:48:48.820Z,315.00
2022-09-01T10:49:25.280Z,309.38
2022-09-01T10:50:22.126Z,298.12
2022-09-01T10:51:22.571Z,309.38
2022-09-01T10:52:28.430Z,286.88
2022-09-01T10:53:26.907Z,270.00
2022-09-01T10:54:21.592Z,264.38
2022-09-01T10:55:25.187Z,264.38
2022-09-01T10:56:28.416Z,270.00
2022-09-01T10:57:27.736Z,264.38
2022-09-01T10:59:32.807Z,247.50
2022-09-01T11:00:40.048Z,241.88
2022-09-01T11:01:47.302Z,264.38
2022-09-01T11:02:24.873Z,281.25
2022-09-01T11:03:30.490Z,309.38
2022-09-01T11:04:22.759Z,309.38
2022-09-01T11:05:21.729Z,292.50
2022-09-01T11:06:21.724Z,258.75
2022-09-01T11:07:33.470Z,264.38
2022-09-01T11:08:23.422Z,253.12
2022-09-01T11:09:21.222Z,230.62
2022-09-01T11:10:36.253Z,264.38
2022-09-01T11:11:22.119Z,270.00
2022-09-01T11:12:29.238Z,264.38
2022-09-01T11:13:22.055Z,241.88
2022-09-01T11:14:21.867Z,241.88
2022-09-01T11:15:21.561Z,247.50
2022-09-01T11:16:45.891Z,258.75
2022-09-01T11:17:22.230Z,270.00
2022-09-01T11:18:21.086Z,270.00
2022-09-01T11:19:20.938Z,270.00
2022-09-01T11:20:20.821Z,264.38
2022-09-01T11:21:20.829Z,241.88
2022-09-01T11:22:21.459Z,247.50
2022-09-01T11:23:21.453Z,253.12
2022-09-01T11:24:20.840Z,281.25
2022-09-01T11:25:21.419Z,281.25
2022-09-01T11:26:20.742Z,315.00
2022-09-01T11:27:21.412Z,315.00
2022-09-01T11:28:21.807Z,275.62
2022-09-01T11:29:20.849Z,247.50
2022-09-01T11:30:21.374Z,241.88
2022-09-01T11:31:20.719Z,270.00
2022-09-01T11:32:21.421Z,275.62
2022-09-01T11:33:21.353Z,298.12
2022-09-01T11:34:20.866Z,281.25
2022-09-01T11:35:20.694Z,275.62
2022-09-01T11:36:22.207Z,270.00
2022-09-01T11:37:21.296Z,264.38
2022-09-01T11:38:21.624Z,258.75
2022-09-01T11:39:21.454Z,292.50
2022-09-01T11:40:20.626Z,281.25
2022-09-01T11:41:20.615Z,292.50
2022-09-01T11:42:21.252Z,270.00
2022-09-01T11:43:20.752Z,264.38
2022-09-01T11:44:20.628Z,258.75
2022-09-01T11:45:21.216Z,258.75
2022-09-01T11:46:21.217Z,275.62
2022-09-01T11:47:21.767Z,275.62
2022-09-01T11:48:20.517Z,270.00
2022-09-01T11:49:20.744Z,264.38
2022-09-01T11:50:20.485Z,331.88
2022-09-01T11:51:21.174Z,315.00
2022-09-01T11:52:20.480Z,298.12
2022-09-01T11:53:20.735Z,337.50
2022-09-01T11:54:20.442Z,315.00
2022-09-01T11:55:21.191Z,286.88
2022-09-01T11:56:20.424Z,292.50
2022-09-01T11:57:20.411Z,303.75
2022-09-01T11:58:21.331Z,298.12
2022-09-01T11:59:20.493Z,292.50
2022-09-01T12:00:22.323Z,298.12
2022-09-01T12:01:20.632Z,315.00
2022-09-01T12:02:20.485Z,303.75
2022-09-01T12:03:21.451Z,281.25
2022-09-01T12:04:20.323Z,270.00
2022-09-01T12:05:20.364Z,258.75
2022-09-01T12:06:20.985Z,275.62
2022-09-01T12:07:20.308Z,270.00
2022-09-01T12:08:22.972Z,264.38
2022-09-01T12:09:20.305Z,264.38
2022-09-01T12:10:20.944Z,253.12
2022-09-01T12:11:20.380Z,219.38
2022-09-01T12:12:20.227Z,225.00
2022-09-01T12:13:20.350Z,241.88
2022-09-01T12:14:20.887Z,258.75
2022-09-01T12:15:20.257Z,225.00
2022-09-01T12:16:20.875Z,213.75
2022-09-01T12:17:20.318Z,208.12
2022-09-01T12:18:20.839Z,225.00
2022-09-01T12:19:20.837Z,236.25
2022-09-01T12:20:24.377Z,236.25
2022-09-01T12:21:22.072Z,281.25
2022-09-01T12:22:20.920Z,281.25
2022-09-01T12:23:20.892Z,286.88
2022-09-01T12:24:21.809Z,292.50
2022-09-01T12:25:20.250Z,292.50
2022-09-01T12:26:20.413Z,286.88
2022-09-01T12:27:20.762Z,292.50
2022-09-01T12:28:20.742Z,281.25
2022-09-01T12:29:20.415Z,286.88
2022-09-01T12:30:20.712Z,286.88
2022-09-01T12:31:20.476Z,253.12
2022-09-01T12:32:20.096Z,281.25
2022-09-01T12:33:24.207Z,247.50
2022-09-01T12:34:20.004Z,225.00
2022-09-01T12:35:20.655Z,241.88
2022-09-01T12:36:20.655Z,230.62
2022-09-01T12:37:20.065Z,219.38
2022-09-01T12:38:20.215Z,225.00
2022-09-01T12:39:20.636Z,213.75
2022-09-01T12:40:20.656Z,208.12
2022-09-01T12:41:23.733Z,213.75
2022-09-01T12:42:19.900Z,264.38
2022-09-01T12:43:20.002Z,258.75
2022-09-01T12:44:19.909Z,275.62
2022-09-01T12:45:19.888Z,298.12
2022-09-01T12:46:19.909Z,270.00
2022-09-01T12:47:20.554Z,281.25
2022-09-01T12:48:19.852Z,236.25
2022-09-01T12:49:20.538Z,281.25
2022-09-01T12:50:19.882Z,264.38
2022-09-01T12:51:23.831Z,275.62
2022-09-01T12:52:20.861Z,270.00
2022-09-01T12:53:22.382Z,241.88
2022-09-01T12:54:21.312Z,219.38
2022-09-01T12:56:20.773Z,168.75
2022-09-01T12:57:20.445Z,168.75
2022-09-01T12:58:20.426Z,185.62
2022-09-01T12:59:24.745Z,168.75
2022-09-01T13:00:20.985Z,180.00
2022-09-01T13:01:20.479Z,174.38
2022-09-01T13:02:20.451Z,163.12
2022-09-01T13:03:20.493Z,163.12
2022-09-01T13:04:20.334Z,168.75
2022-09-01T13:05:20.337Z,185.62
2022-09-01T13:06:19.685Z,196.88
2022-09-01T13:07:19.626Z,208.12
2022-09-01T13:08:19.626Z,196.88